Rotterdam Airport

EHRD | RTM

Rotterdam , South-Holland , Netherlands

Sunday, June 7th, 2020 | 07:41

Weather

EHRD 070525Z AUTO 27006KT 230V310 9999 FEW015CB SCT026 BKN036 10/09 Q1002 RERA TEMPO 6000 SHRA

Charts

No Charts Available

Gates

53 Available

Runways

1 Available

Active ATC

Events -Coming Soon-

1 Events Coming Up Soon

Next event:
EHRD Flyout